Terminal Aerodrome Forecast
Issued by NWS

Home | Current Version | Previous Version | Text Only | Print | Product List | Glossary On
Versions: 1 2 3 4 5 6 7 8 9 10 11 12 13 14 15 16 17 18 19 20 21 22 23 24 25 26 27 28 29 30 31 32 33 34 35 36 37 38 39 40 41 42 43 44 45 46 47 48 49 50
785
FTUS46 KEKA 272344 CCA
TAFACV
TAF COR
KACV 272344Z 2800/2824 30008KT P6SM OVC007
      TEMPO 2800/2802 OVC010
     FM280200 31006KT 6SM BR OVC006
      TEMPO 2805/2806 4SM BR OVC005
     FM280600 00000KT 3SM BR OVC005
     FM281200 00000KT 1/2SM FG VV002
     FM281700 VRB05KT 3SM BR BKN008
     FM281900 29008KT P6SM BKN010=

USA.gov is the U.S. government's official web portal to all federal, state and local government web resources and services.